sensor_id;sensor_type;location;lat;lon;timestamp;P1;durP1;ratioP1;P2;durP2;ratioP2
84500;SDS011;74725;44.210;17.906;2024-01-27T00:03:06;198.43;;;69.72;;
84500;SDS011;74725;44.210;17.906;2024-01-27T00:05:32;153.65;;;64.22;;
84500;SDS011;74725;44.210;17.906;2024-01-27T00:07:57;145.05;;;61.35;;
84500;SDS011;74725;44.210;17.906;2024-01-27T00:15:47;126.65;;;56.20;;
84500;SDS011;74725;44.210;17.906;2024-01-27T00:18:14;154.07;;;60.72;;
84500;SDS011;74725;44.210;17.906;2024-01-27T00:48:07;132.77;;;61.65;;
84500;SDS011;74725;44.210;17.906;2024-01-27T00:50:33;138.38;;;64.68;;
84500;SDS011;74725;44.210;17.906;2024-01-27T00:52:59;141.95;;;69.40;;
84500;SDS011;74725;44.210;17.906;2024-01-27T00:55:24;144.70;;;70.00;;
84500;SDS011;74725;44.210;17.906;2024-01-27T00:57:50;135.70;;;67.22;;
84500;SDS011;74725;44.210;17.906;2024-01-27T01:02:55;146.93;;;66.18;;
84500;SDS011;74725;44.210;17.906;2024-01-27T01:05:21;130.57;;;61.83;;
84500;SDS011;74725;44.210;17.906;2024-01-27T01:07:47;125.70;;;59.60;;
84500;SDS011;74725;44.210;17.906;2024-01-27T01:12:54;128.15;;;59.83;;
84500;SDS011;74725;44.210;17.906;2024-01-27T01:15:20;133.82;;;60.53;;
84500;SDS011;74725;44.210;17.906;2024-01-27T01:17:45;129.35;;;60.72;;
84500;SDS011;74725;44.210;17.906;2024-01-27T01:22:46;120.47;;;58.25;;
84500;SDS011;74725;44.210;17.906;2024-01-27T01:25:12;123.78;;;58.90;;
84500;SDS011;74725;44.210;17.906;2024-01-27T01:27:38;131.27;;;60.67;;
84500;SDS011;74725;44.210;17.906;2024-01-27T01:40:44;135.65;;;62.13;;
84500;SDS011;74725;44.210;17.906;2024-01-27T01:43:10;126.47;;;58.47;;
84500;SDS011;74725;44.210;17.906;2024-01-27T01:45:38;138.82;;;61.40;;
84500;SDS011;74725;44.210;17.906;2024-01-27T01:48:04;128.98;;;60.50;;
84500;SDS011;74725;44.210;17.906;2024-01-27T01:55:47;128.63;;;65.22;;
84500;SDS011;74725;44.210;17.906;2024-01-27T01:58:15;131.98;;;63.67;;
84500;SDS011;74725;44.210;17.906;2024-01-27T02:06:14;143.30;;;65.63;;
84500;SDS011;74725;44.210;17.906;2024-01-27T02:08:39;150.05;;;70.30;;
84500;SDS011;74725;44.210;17.906;2024-01-27T02:11:05;132.32;;;65.38;;
84500;SDS011;74725;44.210;17.906;2024-01-27T02:13:31;145.38;;;66.10;;
84500;SDS011;74725;44.210;17.906;2024-01-27T02:15:56;138.57;;;66.32;;
84500;SDS011;74725;44.210;17.906;2024-01-27T02:18:22;142.27;;;70.13;;
84500;SDS011;74725;44.210;17.906;2024-01-27T02:37:13;138.50;;;64.97;;
84500;SDS011;74725;44.210;17.906;2024-01-27T02:39:39;142.85;;;68.10;;
84500;SDS011;74725;44.210;17.906;2024-01-27T02:42:05;145.70;;;67.43;;
84500;SDS011;74725;44.210;17.906;2024-01-27T02:44:31;133.98;;;66.70;;
84500;SDS011;74725;44.210;17.906;2024-01-27T02:46:57;135.75;;;65.43;;
84500;SDS011;74725;44.210;17.906;2024-01-27T02:49:23;141.40;;;66.90;;
84500;SDS011;74725;44.210;17.906;2024-01-27T02:54:30;140.38;;;65.32;;
84500;SDS011;74725;44.210;17.906;2024-01-27T02:56:56;145.15;;;67.30;;
84500;SDS011;74725;44.210;17.906;2024-01-27T02:59:21;140.98;;;66.22;;
84500;SDS011;74725;44.210;17.906;2024-01-27T03:26:05;121.72;;;58.05;;
84500;SDS011;74725;44.210;17.906;2024-01-27T03:28:31;119.28;;;57.88;;
84500;SDS011;74725;44.210;17.906;2024-01-27T04:33:37;117.97;;;55.97;;
84500;SDS011;74725;44.210;17.906;2024-01-27T04:36:04;112.95;;;55.80;;
84500;SDS011;74725;44.210;17.906;2024-01-27T04:38:32;117.35;;;54.45;;
84500;SDS011;74725;44.210;17.906;2024-01-27T04:46:19;139.20;;;60.65;;
84500;SDS011;74725;44.210;17.906;2024-01-27T04:48:45;132.88;;;57.25;;
84500;SDS011;74725;44.210;17.906;2024-01-27T04:53:53;122.13;;;57.58;;
84500;SDS011;74725;44.210;17.906;2024-01-27T04:56:19;126.90;;;58.03;;
84500;SDS011;74725;44.210;17.906;2024-01-27T04:58:44;118.60;;;56.35;;
84500;SDS011;74725;44.210;17.906;2024-01-27T05:14:26;127.55;;;57.38;;
84500;SDS011;74725;44.210;17.906;2024-01-27T05:16:52;133.23;;;56.58;;
84500;SDS011;74725;44.210;17.906;2024-01-27T05:19:18;128.00;;;56.17;;
84500;SDS011;74725;44.210;17.906;2024-01-27T05:24:25;140.85;;;60.35;;
84500;SDS011;74725;44.210;17.906;2024-01-27T05:26:51;143.07;;;62.78;;
84500;SDS011;74725;44.210;17.906;2024-01-27T05:29:16;134.27;;;59.95;;
84500;SDS011;74725;44.210;17.906;2024-01-27T06:04:06;131.50;;;60.72;;
84500;SDS011;74725;44.210;17.906;2024-01-27T06:06:32;135.35;;;63.83;;
84500;SDS011;74725;44.210;17.906;2024-01-27T06:08:59;163.98;;;74.72;;
84500;SDS011;74725;44.210;17.906;2024-01-27T06:11:25;155.38;;;71.45;;
84500;SDS011;74725;44.210;17.906;2024-01-27T06:13:50;163.98;;;73.70;;
84500;SDS011;74725;44.210;17.906;2024-01-27T06:16:19;155.75;;;71.53;;
84500;SDS011;74725;44.210;17.906;2024-01-27T06:18:45;153.80;;;71.93;;
84500;SDS011;74725;44.210;17.906;2024-01-27T06:37:19;145.95;;;69.47;;
84500;SDS011;74725;44.210;17.906;2024-01-27T06:39:45;155.90;;;72.90;;
84500;SDS011;74725;44.210;17.906;2024-01-27T06:52:58;154.98;;;75.18;;
84500;SDS011;74725;44.210;17.906;2024-01-27T06:55:24;222.07;;;102.72;;
84500;SDS011;74725;44.210;17.906;2024-01-27T06:57:50;182.40;;;87.57;;
84500;SDS011;74725;44.210;17.906;2024-01-27T07:00:16;181.02;;;84.03;;
84500;SDS011;74725;44.210;17.906;2024-01-27T07:02:42;179.93;;;85.78;;
84500;SDS011;74725;44.210;17.906;2024-01-27T07:05:08;178.73;;;86.32;;
84500;SDS011;74725;44.210;17.906;2024-01-27T07:07:34;171.57;;;78.03;;
84500;SDS011;74725;44.210;17.906;2024-01-27T07:10:01;173.07;;;82.97;;
84500;SDS011;74725;44.210;17.906;2024-01-27T07:20:26;227.77;;;97.68;;
84500;SDS011;74725;44.210;17.906;2024-01-27T07:22:54;215.48;;;96.53;;
84500;SDS011;74725;44.210;17.906;2024-01-27T07:25:19;178.82;;;83.57;;
84500;SDS011;74725;44.210;17.906;2024-01-27T07:27:45;192.07;;;86.68;;
84500;SDS011;74725;44.210;17.906;2024-01-27T07:30:11;169.75;;;78.90;;
84500;SDS011;74725;44.210;17.906;2024-01-27T07:35:19;182.90;;;89.25;;
84500;SDS011;74725;44.210;17.906;2024-01-27T07:37:45;182.25;;;84.20;;
84500;SDS011;74725;44.210;17.906;2024-01-27T07:40:11;166.52;;;83.40;;
84500;SDS011;74725;44.210;17.906;2024-01-27T07:45:18;157.13;;;78.63;;
84500;SDS011;74725;44.210;17.906;2024-01-27T07:47:44;148.55;;;71.93;;
84500;SDS011;74725;44.210;17.906;2024-01-27T07:50:09;160.80;;;74.10;;
84500;SDS011;74725;44.210;17.906;2024-01-27T08:06:05;142.13;;;68.38;;
84500;SDS011;74725;44.210;17.906;2024-01-27T08:08:34;146.82;;;68.75;;
84500;SDS011;74725;44.210;17.906;2024-01-27T08:11:00;133.95;;;66.78;;
84500;SDS011;74725;44.210;17.906;2024-01-27T08:51:13;110.88;;;53.30;;
84500;SDS011;74725;44.210;17.906;2024-01-27T09:28:46;72.13;;;37.10;;
84500;SDS011;74725;44.210;17.906;2024-01-27T09:31:20;34.00;;;19.90;;
84500;SDS011;74725;44.210;17.906;2024-01-27T09:47:17;7.35;;;4.35;;
84500;SDS011;74725;44.210;17.906;2024-01-27T09:49:45;9.32;;;4.00;;
84500;SDS011;74725;44.210;17.906;2024-01-27T09:57:34;4.43;;;2.10;;
84500;SDS011;74725;44.210;17.906;2024-01-27T10:00:03;3.25;;;1.70;;
84500;SDS011;74725;44.210;17.906;2024-01-27T10:48:23;6.47;;;2.13;;
84500;SDS011;74725;44.210;17.906;2024-01-27T10:50:51;5.32;;;3.20;;
84500;SDS011;74725;44.210;17.906;2024-01-27T11:20:16;6.93;;;2.80;;
84500;SDS011;74725;44.210;17.906;2024-01-27T14:40:28;7.38;;;3.42;;
84500;SDS011;74725;44.210;17.906;2024-01-27T15:57:53;25.90;;;10.05;;
84500;SDS011;74725;44.210;17.906;2024-01-27T16:00:19;27.27;;;12.77;;
84500;SDS011;74725;44.210;17.906;2024-01-27T16:08:03;47.38;;;25.60;;
84500;SDS011;74725;44.210;17.906;2024-01-27T16:10:28;63.08;;;25.77;;
84500;SDS011;74725;44.210;17.906;2024-01-27T16:15:36;58.58;;;24.48;;
84500;SDS011;74725;44.210;17.906;2024-01-27T16:18:02;46.10;;;22.15;;
84500;SDS011;74725;44.210;17.906;2024-01-27T16:20:28;49.08;;;23.45;;
84500;SDS011;74725;44.210;17.906;2024-01-27T16:25:35;66.53;;;24.90;;
84500;SDS011;74725;44.210;17.906;2024-01-27T16:28:01;51.92;;;25.45;;
84500;SDS011;74725;44.210;17.906;2024-01-27T16:30:26;59.40;;;26.27;;
84500;SDS011;74725;44.210;17.906;2024-01-27T16:46:22;68.88;;;30.00;;
84500;SDS011;74725;44.210;17.906;2024-01-27T16:48:48;53.17;;;25.20;;
84500;SDS011;74725;44.210;17.906;2024-01-27T16:51:16;47.42;;;22.13;;
84500;SDS011;74725;44.210;17.906;2024-01-27T17:04:29;68.50;;;30.08;;
84500;SDS011;74725;44.210;17.906;2024-01-27T17:06:54;61.25;;;27.08;;
84500;SDS011;74725;44.210;17.906;2024-01-27T17:09:20;58.15;;;29.48;;
84500;SDS011;74725;44.210;17.906;2024-01-27T17:11:46;71.35;;;32.88;;
84500;SDS011;74725;44.210;17.906;2024-01-27T17:16:53;74.68;;;34.60;;
84500;SDS011;74725;44.210;17.906;2024-01-27T17:19:19;65.60;;;33.40;;
84500;SDS011;74725;44.210;17.906;2024-01-27T17:21:45;74.55;;;34.65;;
84500;SDS011;74725;44.210;17.906;2024-01-27T17:24:11;67.55;;;33.45;;
84500;SDS011;74725;44.210;17.906;2024-01-27T17:26:36;84.63;;;38.75;;
84500;SDS011;74725;44.210;17.906;2024-01-27T17:29:02;74.47;;;36.67;;
84500;SDS011;74725;44.210;17.906;2024-01-27T17:31:28;99.22;;;46.85;;
84500;SDS011;74725;44.210;17.906;2024-01-27T17:33:54;107.07;;;44.85;;
84500;SDS011;74725;44.210;17.906;2024-01-27T17:36:19;98.78;;;42.83;;
84500;SDS011;74725;44.210;17.906;2024-01-27T17:38:46;92.97;;;43.88;;
84500;SDS011;74725;44.210;17.906;2024-01-27T17:41:12;95.55;;;42.78;;
84500;SDS011;74725;44.210;17.906;2024-01-27T17:43:37;91.88;;;42.08;;
84500;SDS011;74725;44.210;17.906;2024-01-27T17:46:03;89.72;;;42.90;;
84500;SDS011;74725;44.210;17.906;2024-01-27T17:48:28;86.25;;;41.15;;
84500;SDS011;74725;44.210;17.906;2024-01-27T17:50:54;94.88;;;44.55;;
84500;SDS011;74725;44.210;17.906;2024-01-27T17:53:20;81.40;;;39.05;;
84500;SDS011;74725;44.210;17.906;2024-01-27T17:58:27;75.15;;;39.03;;
84500;SDS011;74725;44.210;17.906;2024-01-27T18:00:53;74.85;;;37.38;;
84500;SDS011;74725;44.210;17.906;2024-01-27T18:03:19;55.80;;;27.55;;
84500;SDS011;74725;44.210;17.906;2024-01-27T18:05:44;73.35;;;36.28;;
84500;SDS011;74725;44.210;17.906;2024-01-27T18:08:17;82.75;;;39.22;;
84500;SDS011;74725;44.210;17.906;2024-01-27T18:10:43;96.68;;;44.38;;
84500;SDS011;74725;44.210;17.906;2024-01-27T18:13:10;98.32;;;43.90;;
84500;SDS011;74725;44.210;17.906;2024-01-27T18:15:36;95.30;;;42.67;;
84500;SDS011;74725;44.210;17.906;2024-01-27T18:18:02;102.88;;;45.90;;
84500;SDS011;74725;44.210;17.906;2024-01-27T18:20:28;100.07;;;47.05;;
84500;SDS011;74725;44.210;17.906;2024-01-27T18:22:53;107.53;;;47.97;;
84500;SDS011;74725;44.210;17.906;2024-01-27T18:25:19;110.10;;;51.28;;
84500;SDS011;74725;44.210;17.906;2024-01-27T18:27:46;109.85;;;49.95;;
84500;SDS011;74725;44.210;17.906;2024-01-27T18:30:12;97.90;;;45.33;;
84500;SDS011;74725;44.210;17.906;2024-01-27T18:32:38;105.35;;;48.08;;
84500;SDS011;74725;44.210;17.906;2024-01-27T18:37:46;81.35;;;39.55;;
84500;SDS011;74725;44.210;17.906;2024-01-27T18:40:12;83.97;;;39.10;;
84500;SDS011;74725;44.210;17.906;2024-01-27T18:42:38;78.28;;;37.33;;
84500;SDS011;74725;44.210;17.906;2024-01-27T18:45:03;81.05;;;37.95;;
84500;SDS011;74725;44.210;17.906;2024-01-27T18:47:30;79.00;;;37.20;;
84500;SDS011;74725;44.210;17.906;2024-01-27T18:49:56;75.80;;;37.35;;
84500;SDS011;74725;44.210;17.906;2024-01-27T18:52:22;79.13;;;38.15;;
84500;SDS011;74725;44.210;17.906;2024-01-27T18:57:31;78.20;;;37.17;;
84500;SDS011;74725;44.210;17.906;2024-01-27T18:59:57;72.03;;;36.97;;
84500;SDS011;74725;44.210;17.906;2024-01-27T19:02:25;69.47;;;34.45;;
84500;SDS011;74725;44.210;17.906;2024-01-27T19:04:51;84.75;;;39.58;;
84500;SDS011;74725;44.210;17.906;2024-01-27T19:07:17;89.68;;;42.50;;
84500;SDS011;74725;44.210;17.906;2024-01-27T19:09:43;88.35;;;40.72;;
84500;SDS011;74725;44.210;17.906;2024-01-27T19:12:09;96.75;;;44.63;;
84500;SDS011;74725;44.210;17.906;2024-01-27T19:17:10;92.70;;;44.20;;
84500;SDS011;74725;44.210;17.906;2024-01-27T19:19:35;92.32;;;43.17;;
84500;SDS011;74725;44.210;17.906;2024-01-27T19:22:01;88.32;;;42.58;;
84500;SDS011;74725;44.210;17.906;2024-01-27T19:24:27;88.05;;;42.97;;
84500;SDS011;74725;44.210;17.906;2024-01-27T19:26:54;92.07;;;44.08;;
84500;SDS011;74725;44.210;17.906;2024-01-27T19:29:20;88.88;;;42.05;;
84500;SDS011;74725;44.210;17.906;2024-01-27T19:31:45;87.38;;;42.42;;
84500;SDS011;74725;44.210;17.906;2024-01-27T19:34:12;82.65;;;40.92;;
84500;SDS011;74725;44.210;17.906;2024-01-27T19:36:38;80.00;;;39.80;;
84500;SDS011;74725;44.210;17.906;2024-01-27T19:39:03;93.75;;;43.88;;
84500;SDS011;74725;44.210;17.906;2024-01-27T19:41:29;90.40;;;42.60;;
84500;SDS011;74725;44.210;17.906;2024-01-27T19:43:55;105.70;;;46.60;;
84500;SDS011;74725;44.210;17.906;2024-01-27T19:46:21;95.43;;;45.85;;
84500;SDS011;74725;44.210;17.906;2024-01-27T19:48:46;95.72;;;46.05;;
84500;SDS011;74725;44.210;17.906;2024-01-27T19:51:12;95.60;;;45.40;;
84500;SDS011;74725;44.210;17.906;2024-01-27T19:53:38;98.07;;;46.40;;
84500;SDS011;74725;44.210;17.906;2024-01-27T19:58:54;106.32;;;47.40;;
84500;SDS011;74725;44.210;17.906;2024-01-27T20:01:19;126.20;;;53.70;;
84500;SDS011;74725;44.210;17.906;2024-01-27T20:03:45;93.43;;;46.90;;
84500;SDS011;74725;44.210;17.906;2024-01-27T20:06:12;103.93;;;46.85;;
84500;SDS011;74725;44.210;17.906;2024-01-27T20:08:38;100.03;;;46.95;;
84500;SDS011;74725;44.210;17.906;2024-01-27T20:11:05;87.32;;;45.83;;
84500;SDS011;74725;44.210;17.906;2024-01-27T20:13:32;91.43;;;44.88;;
84500;SDS011;74725;44.210;17.906;2024-01-27T20:15:58;84.68;;;43.25;;
84500;SDS011;74725;44.210;17.906;2024-01-27T20:18:23;87.95;;;44.03;;
84500;SDS011;74725;44.210;17.906;2024-01-27T20:20:49;89.15;;;46.10;;
84500;SDS011;74725;44.210;17.906;2024-01-27T20:23:18;94.63;;;45.40;;
84500;SDS011;74725;44.210;17.906;2024-01-27T20:28:26;103.45;;;48.30;;
84500;SDS011;74725;44.210;17.906;2024-01-27T20:30:52;93.20;;;45.00;;
84500;SDS011;74725;44.210;17.906;2024-01-27T20:33:18;96.82;;;45.08;;
84500;SDS011;74725;44.210;17.906;2024-01-27T20:35:44;97.07;;;45.25;;
84500;SDS011;74725;44.210;17.906;2024-01-27T20:38:09;102.85;;;49.17;;
84500;SDS011;74725;44.210;17.906;2024-01-27T20:40:36;98.75;;;47.80;;
84500;SDS011;74725;44.210;17.906;2024-01-27T20:43:05;98.88;;;47.33;;
84500;SDS011;74725;44.210;17.906;2024-01-27T20:45:32;103.85;;;49.15;;
84500;SDS011;74725;44.210;17.906;2024-01-27T20:48:00;106.88;;;49.55;;
84500;SDS011;74725;44.210;17.906;2024-01-27T20:50:26;93.97;;;48.38;;
84500;SDS011;74725;44.210;17.906;2024-01-27T20:52:52;113.47;;;50.65;;
84500;SDS011;74725;44.210;17.906;2024-01-27T20:55:18;103.95;;;48.67;;
84500;SDS011;74725;44.210;17.906;2024-01-27T20:57:44;100.28;;;48.47;;
84500;SDS011;74725;44.210;17.906;2024-01-27T21:00:10;124.97;;;57.88;;
84500;SDS011;74725;44.210;17.906;2024-01-27T21:02:36;94.72;;;45.05;;
84500;SDS011;74725;44.210;17.906;2024-01-27T21:07:44;85.40;;;44.08;;
84500;SDS011;74725;44.210;17.906;2024-01-27T21:10:10;91.00;;;43.30;;
84500;SDS011;74725;44.210;17.906;2024-01-27T21:12:36;99.88;;;47.80;;
84500;SDS011;74725;44.210;17.906;2024-01-27T21:15:02;100.95;;;48.30;;
84500;SDS011;74725;44.210;17.906;2024-01-27T21:17:28;109.13;;;49.10;;
84500;SDS011;74725;44.210;17.906;2024-01-27T21:19:54;96.15;;;46.72;;
84500;SDS011;74725;44.210;17.906;2024-01-27T21:22:20;98.63;;;44.28;;
84500;SDS011;74725;44.210;17.906;2024-01-27T21:24:45;86.10;;;43.45;;
84500;SDS011;74725;44.210;17.906;2024-01-27T21:27:11;90.80;;;41.13;;
84500;SDS011;74725;44.210;17.906;2024-01-27T21:29:37;81.60;;;41.05;;
84500;SDS011;74725;44.210;17.906;2024-01-27T21:32:02;85.32;;;41.33;;
84500;SDS011;74725;44.210;17.906;2024-01-27T21:34:29;88.15;;;41.08;;
84500;SDS011;74725;44.210;17.906;2024-01-27T21:39:24;103.15;;;49.45;;
84500;SDS011;74725;44.210;17.906;2024-01-27T21:41:51;110.70;;;48.45;;
84500;SDS011;74725;44.210;17.906;2024-01-27T21:44:16;124.47;;;54.40;;
84500;SDS011;74725;44.210;17.906;2024-01-27T21:46:42;121.30;;;53.85;;
84500;SDS011;74725;44.210;17.906;2024-01-27T21:49:08;117.32;;;50.00;;
84500;SDS011;74725;44.210;17.906;2024-01-27T21:51:33;117.78;;;52.67;;
84500;SDS011;74725;44.210;17.906;2024-01-27T21:53:59;109.10;;;52.80;;
84500;SDS011;74725;44.210;17.906;2024-01-27T21:59:07;107.43;;;49.35;;
84500;SDS011;74725;44.210;17.906;2024-01-27T22:01:33;98.50;;;47.97;;
84500;SDS011;74725;44.210;17.906;2024-01-27T22:03:59;99.18;;;49.10;;
84500;SDS011;74725;44.210;17.906;2024-01-27T22:06:26;94.38;;;44.67;;
84500;SDS011;74725;44.210;17.906;2024-01-27T22:08:51;94.30;;;43.28;;
84500;SDS011;74725;44.210;17.906;2024-01-27T22:11:17;94.40;;;45.30;;
84500;SDS011;74725;44.210;17.906;2024-01-27T22:13:43;89.20;;;42.38;;
84500;SDS011;74725;44.210;17.906;2024-01-27T22:21:34;103.35;;;48.80;;
84500;SDS011;74725;44.210;17.906;2024-01-27T22:24:00;101.93;;;49.25;;
84500;SDS011;74725;44.210;17.906;2024-01-27T22:26:25;142.77;;;54.50;;
84500;SDS011;74725;44.210;17.906;2024-01-27T22:28:51;110.82;;;48.88;;
84500;SDS011;74725;44.210;17.906;2024-01-27T22:31:16;105.65;;;47.08;;
84500;SDS011;74725;44.210;17.906;2024-01-27T22:33:42;118.15;;;50.30;;
84500;SDS011;74725;44.210;17.906;2024-01-27T22:41:32;81.18;;;38.78;;
84500;SDS011;74725;44.210;17.906;2024-01-27T22:43:58;77.97;;;36.40;;
84500;SDS011;74725;44.210;17.906;2024-01-27T22:46:24;85.97;;;39.63;;
84500;SDS011;74725;44.210;17.906;2024-01-27T22:48:50;87.82;;;39.17;;
84500;SDS011;74725;44.210;17.906;2024-01-27T22:51:16;72.45;;;35.22;;
84500;SDS011;74725;44.210;17.906;2024-01-27T22:53:42;76.72;;;37.47;;
84500;SDS011;74725;44.210;17.906;2024-01-27T22:58:49;74.40;;;36.55;;
84500;SDS011;74725;44.210;17.906;2024-01-27T23:01:14;76.10;;;36.72;;
84500;SDS011;74725;44.210;17.906;2024-01-27T23:03:40;78.55;;;36.13;;
84500;SDS011;74725;44.210;17.906;2024-01-27T23:14:12;70.72;;;28.15;;
84500;SDS011;74725;44.210;17.906;2024-01-27T23:22:01;74.10;;;26.58;;
84500;SDS011;74725;44.210;17.906;2024-01-27T23:24:26;55.45;;;24.10;;
84500;SDS011;74725;44.210;17.906;2024-01-27T23:40:22;17.63;;;7.45;;
84500;SDS011;74725;44.210;17.906;2024-01-27T23:42:48;29.10;;;10.63;;
84500;SDS011;74725;44.210;17.906;2024-01-27T23:45:13;21.48;;;7.93;;
84500;SDS011;74725;44.210;17.906;2024-01-27T23:58:28;28.00;;;13.05;;
